createdAt,value
2018-09-10T00:00:30.777Z,9.83
2018-09-10T00:02:59.221Z,9.33
2018-09-10T00:05:27.684Z,9.33
2018-09-10T00:07:56.128Z,9.10
2018-09-10T00:10:24.612Z,8.87
2018-09-10T00:12:53.054Z,9.30
2018-09-10T00:15:21.520Z,9.43
2018-09-10T00:17:49.975Z,9.60
2018-09-10T00:20:18.480Z,9.23
2018-09-10T00:22:46.946Z,9.70
2018-09-10T00:25:15.400Z,9.57
2018-09-10T00:27:43.863Z,9.17
2018-09-10T00:30:12.361Z,9.17
2018-09-10T00:32:40.850Z,8.80
2018-09-10T00:35:09.316Z,9.37
2018-09-10T00:37:37.769Z,9.67
2018-09-10T00:40:06.293Z,10.13
2018-09-10T00:42:34.751Z,9.20
2018-09-10T00:45:03.298Z,9.20
2018-09-10T00:47:31.725Z,9.57
2018-09-10T00:50:00.215Z,9.93
2018-09-10T00:52:28.658Z,10.00
2018-09-10T00:54:57.139Z,10.30
2018-09-10T00:57:25.587Z,10.57
2018-09-10T00:59:54.165Z,10.50
2018-09-10T01:02:22.580Z,10.70
2018-09-10T01:04:51.062Z,11.93
2018-09-10T01:07:19.526Z,10.77
2018-09-10T01:09:48.065Z,9.87
2018-09-10T01:12:16.524Z,10.23
2018-09-10T01:14:45.043Z,10.03
2018-09-10T01:17:13.488Z,9.63
2018-09-10T01:19:41.937Z,9.90
2018-09-10T01:22:10.373Z,9.37
2018-09-10T01:24:38.864Z,9.53
2018-09-10T01:27:07.310Z,10.10
2018-09-10T01:29:35.758Z,10.30
2018-09-10T01:32:04.237Z,9.93
2018-09-10T01:34:38.090Z,9.40
2018-09-10T01:37:06.525Z,9.67
2018-09-10T01:39:35.007Z,9.17
2018-09-10T01:42:03.467Z,9.83
2018-09-10T01:44:31.897Z,9.77
2018-09-10T01:47:00.443Z,11.23
2018-09-10T01:49:28.885Z,10.10
2018-09-10T01:51:57.365Z,9.27
2018-09-10T01:54:25.809Z,8.73
2018-09-10T01:56:54.308Z,9.23
2018-09-10T01:59:22.788Z,8.40
2018-09-10T02:01:51.270Z,8.70
2018-09-10T02:04:19.713Z,8.90
2018-09-10T02:06:48.187Z,9.23
2018-09-10T02:09:16.638Z,9.30
2018-09-10T02:11:45.125Z,9.60
2018-09-10T02:14:13.569Z,9.00
2018-09-10T02:16:42.045Z,10.47
2018-09-10T02:19:10.505Z,10.33
2018-09-10T02:21:38.989Z,9.73
2018-09-10T02:24:07.510Z,9.73
2018-09-10T02:26:36.005Z,10.03
2018-09-10T02:29:04.483Z,10.20
2018-09-10T02:31:32.973Z,10.77
2018-09-10T02:34:01.438Z,11.53
2018-09-10T02:36:29.892Z,10.37
2018-09-10T02:38:58.411Z,9.13
2018-09-10T02:41:26.914Z,9.43
2018-09-10T02:43:55.369Z,9.40
2018-09-10T02:46:23.870Z,10.10
2018-09-10T02:48:52.318Z,10.30
2018-09-10T02:51:20.844Z,10.70
2018-09-10T02:53:49.314Z,9.90
2018-09-10T02:56:17.798Z,9.47
2018-09-10T02:58:46.241Z,10.67
2018-09-10T03:01:14.755Z,9.77
2018-09-10T03:03:43.178Z,9.70
2018-09-10T03:06:11.636Z,9.67
2018-09-10T03:08:40.073Z,9.47
2018-09-10T03:11:08.521Z,9.87
2018-09-10T03:13:36.966Z,9.90
2018-09-10T03:16:05.466Z,9.33
2018-09-10T03:18:33.892Z,10.43
2018-09-10T03:21:02.548Z,10.80
2018-09-10T03:23:31.001Z,10.17
2018-09-10T03:25:59.428Z,9.90
2018-09-10T03:28:27.910Z,9.83
2018-09-10T03:30:56.393Z,9.93
2018-09-10T03:33:24.957Z,9.53
2018-09-10T03:35:53.362Z,10.60
2018-09-10T03:38:21.821Z,10.40
2018-09-10T03:40:50.286Z,10.53
2018-09-10T03:43:18.765Z,11.10
2018-09-10T03:45:47.235Z,10.53
2018-09-10T03:48:15.746Z,9.73
2018-09-10T03:50:44.190Z,9.43
2018-09-10T03:53:12.664Z,10.63
2018-09-10T03:55:41.104Z,10.00
2018-09-10T03:58:09.625Z,9.93
2018-09-10T04:00:38.053Z,10.67
2018-09-10T04:03:06.557Z,10.53
2018-09-10T04:05:35.041Z,10.27
2018-09-10T04:08:03.805Z,10.03
2018-09-10T04:10:32.253Z,10.37
2018-09-10T04:13:00.760Z,10.17
2018-09-10T04:15:29.216Z,10.73
2018-09-10T04:17:57.669Z,10.43
2018-09-10T04:20:26.112Z,10.63
2018-09-10T04:22:54.581Z,10.53
2018-09-10T04:25:23.073Z,10.77
2018-09-10T04:27:51.545Z,10.90
2018-09-10T04:30:20.009Z,11.23
2018-09-10T04:32:48.518Z,10.73
2018-09-10T04:35:17.003Z,11.27
2018-09-10T04:37:45.469Z,10.80
2018-09-10T04:40:13.954Z,10.90
2018-09-10T04:42:42.419Z,11.97
2018-09-10T04:45:10.905Z,11.43
2018-09-10T04:47:39.396Z,10.47
2018-09-10T04:50:07.889Z,11.10
2018-09-10T04:52:36.388Z,11.30
2018-09-10T04:55:05.021Z,11.43
2018-09-10T04:57:33.513Z,11.33
2018-09-10T05:00:01.951Z,11.50
2018-09-10T05:02:30.440Z,11.70
2018-09-10T05:04:58.884Z,10.63
2018-09-10T05:07:27.383Z,10.30
2018-09-10T05:09:55.947Z,9.90
2018-09-10T05:12:27.386Z,10.17
2018-09-10T05:14:55.823Z,9.67
2018-09-10T05:17:24.355Z,9.37
2018-09-10T05:19:52.817Z,9.70
2018-09-10T05:22:21.540Z,9.43
2018-09-10T05:24:49.997Z,9.17
2018-09-10T05:27:18.425Z,9.40
2018-09-10T05:29:46.948Z,9.27
2018-09-10T05:32:15.406Z,9.67
2018-09-10T05:34:43.882Z,8.53
2018-09-10T05:37:12.425Z,9.00
2018-09-10T05:39:40.931Z,9.47
2018-09-10T05:42:09.677Z,9.00
2018-09-10T05:44:38.147Z,9.03
2018-09-10T05:47:23.831Z,8.73
2018-09-10T05:49:53.077Z,9.13
2018-09-10T05:52:21.601Z,9.50
2018-09-10T05:54:50.421Z,9.00
2018-09-10T05:57:18.872Z,8.70
2018-09-10T05:59:47.347Z,8.57
2018-09-10T06:02:15.833Z,8.60
2018-09-10T06:04:44.677Z,9.03
2018-09-10T06:07:13.132Z,8.47
2018-09-10T06:09:41.717Z,8.87
2018-09-10T06:12:10.160Z,8.47
2018-09-10T06:14:38.629Z,8.33
2018-09-10T06:17:07.147Z,8.33
2018-09-10T06:19:35.641Z,8.67
2018-09-10T06:22:04.114Z,8.90
2018-09-10T06:24:32.602Z,8.07
2018-09-10T06:27:01.121Z,9.13
2018-09-10T06:29:29.673Z,8.57
2018-09-10T06:31:58.144Z,9.50
2018-09-10T06:34:26.713Z,10.23
2018-09-10T06:36:55.259Z,10.07
2018-09-10T06:39:23.737Z,10.20
2018-09-10T06:41:52.233Z,9.53
2018-09-10T06:44:20.740Z,9.50
2018-09-10T06:46:49.223Z,8.80
2018-09-10T06:49:17.726Z,9.53
2018-09-10T06:51:46.180Z,8.30
2018-09-10T06:54:14.693Z,8.10
2018-09-10T07:03:45.372Z,6.60
2018-09-10T07:06:13.936Z,6.80
2018-09-10T07:08:42.450Z,7.05
2018-09-10T07:11:12.031Z,6.15
2018-09-10T07:13:41.107Z,6.50
2018-09-10T07:16:09.704Z,6.10
2018-09-10T07:18:38.302Z,6.40
2018-09-10T07:21:06.749Z,6.05
2018-09-10T07:23:35.230Z,6.40
2018-09-10T07:26:03.766Z,6.10
2018-09-10T07:28:32.349Z,6.65
2018-09-10T07:31:00.923Z,6.50
2018-09-10T07:33:30.366Z,6.20
2018-09-10T07:35:58.904Z,5.70
2018-09-10T07:38:27.468Z,6.17
2018-09-10T07:40:56.004Z,5.78
2018-09-10T07:43:24.556Z,6.83
2018-09-10T07:45:53.062Z,6.75
2018-09-10T07:48:21.550Z,5.85
2018-09-10T07:50:50.082Z,6.78
2018-09-10T07:53:18.594Z,6.75
2018-09-10T07:55:47.094Z,6.17
2018-09-10T07:58:15.586Z,6.12
2018-09-10T08:00:44.163Z,6.25
2018-09-10T08:03:12.626Z,5.80
2018-09-10T08:05:41.109Z,6.87
2018-09-10T08:08:09.595Z,6.80
2018-09-10T08:10:38.101Z,7.28
2018-09-10T08:13:06.585Z,5.80
2018-09-10T08:15:35.104Z,6.87
2018-09-10T08:18:03.636Z,7.10
2018-09-10T08:20:32.755Z,7.15
2018-09-10T08:23:01.290Z,7.50
2018-09-10T08:25:29.789Z,6.45
2018-09-10T08:27:58.249Z,6.95
2018-09-10T08:30:26.857Z,7.50
2018-09-10T08:32:55.309Z,7.15
2018-09-10T08:35:29.661Z,7.25
2018-09-10T08:37:58.644Z,12.30
2018-09-10T08:40:27.169Z,7.35
2018-09-10T08:42:55.701Z,6.10
2018-09-10T08:45:24.273Z,7.95
2018-09-10T08:47:52.818Z,7.33
2018-09-10T08:50:21.846Z,7.60
2018-09-10T08:52:51.206Z,6.62
2018-09-10T08:55:19.696Z,7.33
2018-09-10T08:57:48.211Z,7.37
2018-09-10T09:00:16.720Z,7.80
2018-09-10T09:05:40.065Z,7.47
2018-09-10T09:08:08.719Z,7.00
2018-09-10T09:10:38.001Z,8.10
2018-09-10T09:13:06.533Z,7.50
2018-09-10T09:15:34.988Z,7.40
2018-09-10T09:18:05.969Z,7.53
2018-09-10T09:20:34.522Z,7.40
2018-09-10T09:23:03.753Z,7.90
2018-09-10T09:25:32.221Z,7.78
2018-09-10T09:28:01.345Z,7.50
2018-09-10T09:30:29.878Z,7.65
2018-09-10T09:32:58.489Z,7.67
2018-09-10T09:35:32.268Z,7.20
2018-09-10T09:38:05.987Z,7.17
2018-09-10T09:40:39.722Z,6.78
2018-09-10T09:43:13.635Z,6.33
2018-09-10T09:45:47.336Z,6.40
2018-09-10T09:48:15.847Z,6.53
2018-09-10T09:50:44.394Z,8.08
2018-09-10T09:53:12.899Z,7.60
2018-09-10T09:55:41.374Z,7.33
2018-09-10T09:58:10.696Z,6.60
2018-09-10T10:00:44.395Z,7.47
2018-09-10T10:03:18.202Z,6.50
2018-09-10T10:05:46.707Z,6.92
2018-09-10T10:08:15.216Z,6.25
2018-09-10T10:10:43.677Z,6.28
2018-09-10T10:13:12.161Z,6.83
2018-09-10T10:15:40.616Z,6.53
2018-09-10T10:18:09.136Z,5.75
2018-09-10T10:20:37.667Z,6.40
2018-09-10T10:23:06.205Z,5.85
2018-09-10T10:25:34.662Z,5.58
2018-09-10T10:28:03.148Z,4.83
2018-09-10T10:30:31.600Z,6.35
2018-09-10T10:33:00.077Z,6.40
2018-09-10T10:35:28.569Z,5.67
2018-09-10T10:37:57.987Z,6.78
2018-09-10T10:40:26.477Z,5.33
2018-09-10T10:42:54.983Z,6.37
2018-09-10T10:45:23.825Z,5.70
2018-09-10T10:47:52.334Z,5.03
2018-09-10T10:50:20.820Z,5.87
2018-09-10T10:52:49.312Z,6.00
2018-09-10T10:55:17.858Z,5.30
2018-09-10T10:57:46.345Z,4.60
2018-09-10T11:00:15.371Z,6.15
2018-09-10T11:02:43.821Z,5.17
2018-09-10T11:05:12.369Z,6.17
2018-09-10T11:07:40.825Z,6.12
2018-09-10T11:10:09.562Z,5.55
2018-09-10T11:12:38.085Z,4.50
2018-09-10T11:15:06.630Z,5.15
2018-09-10T11:17:35.099Z,5.60
2018-09-10T11:20:03.605Z,5.17
2018-09-10T11:22:32.091Z,5.10
2018-09-10T11:25:00.606Z,4.85
2018-09-10T11:27:29.095Z,5.33
2018-09-10T11:29:57.589Z,5.42
2018-09-10T11:32:26.109Z,4.40
2018-09-10T11:34:54.641Z,4.30
2018-09-10T11:37:23.156Z,4.60
2018-09-10T11:39:51.750Z,4.47
2018-09-10T11:42:22.188Z,4.78
2018-09-10T11:44:51.004Z,4.20
2018-09-10T11:47:19.493Z,5.37
2018-09-10T11:49:47.962Z,4.17
2018-09-10T11:52:16.416Z,4.60
2018-09-10T11:54:44.880Z,4.33
2018-09-10T11:57:13.381Z,3.77
2018-09-10T11:59:41.883Z,4.00
2018-09-10T12:02:10.460Z,4.50
2018-09-10T12:04:39.024Z,4.58
2018-09-10T12:07:07.498Z,4.22
2018-09-10T12:09:35.973Z,4.90
2018-09-10T12:12:04.489Z,5.00
2018-09-10T12:14:33.009Z,4.28
2018-09-10T12:17:01.453Z,4.40
2018-09-10T12:19:30.024Z,5.33
2018-09-10T12:21:58.528Z,4.12
2018-09-10T12:24:27.155Z,4.00
2018-09-10T12:26:55.672Z,5.10
2018-09-10T12:29:24.154Z,4.08
2018-09-10T12:31:56.063Z,5.25
2018-09-10T12:34:24.637Z,5.05
2018-09-10T12:36:53.120Z,5.33
2018-09-10T12:39:21.593Z,4.22
2018-09-10T12:41:50.090Z,5.47
2018-09-10T12:44:18.538Z,4.28
2018-09-10T12:46:47.005Z,4.53
2018-09-10T12:49:15.499Z,5.60
2018-09-10T12:51:44.031Z,4.90
2018-09-10T12:54:12.558Z,5.35
2018-09-10T12:56:41.061Z,5.40
2018-09-10T12:59:09.514Z,4.60
2018-09-10T13:01:37.996Z,5.15
2018-09-10T13:04:06.852Z,5.28
2018-09-10T13:06:35.313Z,4.70
2018-09-10T13:09:04.708Z,4.55
2018-09-10T13:11:33.174Z,6.20
2018-09-10T13:14:01.896Z,5.78
2018-09-10T13:16:30.387Z,6.83
2018-09-10T13:18:58.877Z,6.42
2018-09-10T13:21:27.348Z,5.33
2018-09-10T13:23:55.814Z,5.05
2018-09-10T13:26:24.294Z,5.20
2018-09-10T13:28:52.861Z,5.40
2018-09-10T13:31:21.362Z,4.50
2018-09-10T13:33:49.862Z,4.80
2018-09-10T13:36:18.391Z,5.00
2018-09-10T13:38:46.853Z,5.70
2018-09-10T13:41:15.427Z,6.62
2018-09-10T13:43:43.905Z,5.42
2018-09-10T13:46:13.109Z,4.20
2018-09-10T13:48:41.576Z,5.00
2018-09-10T13:51:10.074Z,5.30
2018-09-10T13:53:38.567Z,4.80
2018-09-10T13:56:07.094Z,5.00
2018-09-10T13:58:35.521Z,4.92
2018-09-10T14:01:04.005Z,4.65
2018-09-10T14:03:34.828Z,4.72
2018-09-10T14:06:05.086Z,5.28
2018-09-10T14:08:33.631Z,4.95
2018-09-10T14:11:02.193Z,5.08
2018-09-10T14:13:30.665Z,4.30
2018-09-10T14:15:59.113Z,4.33
2018-09-10T14:18:27.578Z,4.50
2018-09-10T14:20:56.074Z,5.33
2018-09-10T14:23:24.541Z,5.03
2018-09-10T14:25:53.153Z,4.45
2018-09-10T14:28:21.673Z,4.30
2018-09-10T14:30:50.507Z,4.90
2018-09-10T14:33:18.984Z,4.20
2018-09-10T14:35:47.482Z,4.78
2018-09-10T14:38:16.035Z,4.50
2018-09-10T14:40:44.533Z,4.10
2018-09-10T14:43:13.066Z,2.72
2018-09-10T14:45:41.540Z,3.15
2018-09-10T14:48:10.033Z,3.60
2018-09-10T14:50:38.552Z,2.90
2018-09-10T14:53:07.090Z,2.70
2018-09-10T14:55:35.576Z,3.92
2018-09-10T14:58:04.902Z,2.70
2018-09-10T15:00:33.356Z,2.98
2018-09-10T15:03:01.902Z,2.52
2018-09-10T15:05:30.370Z,2.98
2018-09-10T15:07:58.870Z,3.02
2018-09-10T15:10:27.348Z,2.80
2018-09-10T15:12:55.890Z,3.05
2018-09-10T15:15:24.357Z,3.08
2018-09-10T15:17:52.878Z,3.30
2018-09-10T15:20:21.463Z,3.40
2018-09-10T15:22:49.974Z,3.35
2018-09-10T15:25:18.459Z,4.15
2018-09-10T15:27:47.003Z,3.45
2018-09-10T15:30:15.563Z,4.00
2018-09-10T15:32:44.057Z,3.70
2018-09-10T15:35:12.510Z,3.60
2018-09-10T15:37:41.048Z,3.72
2018-09-10T15:40:09.549Z,4.58
2018-09-10T15:42:38.021Z,3.35
2018-09-10T15:45:06.604Z,3.70
2018-09-10T15:47:35.103Z,3.80
2018-09-10T15:50:04.423Z,3.77
2018-09-10T15:52:33.052Z,3.67
2018-09-10T15:55:01.518Z,3.33
2018-09-10T15:57:30.041Z,3.92
2018-09-10T15:59:58.533Z,3.33
2018-09-10T16:02:39.518Z,3.22
2018-09-10T16:05:08.011Z,3.83
2018-09-10T16:07:38.957Z,3.58
2018-09-10T16:10:07.558Z,3.30
2018-09-10T16:12:36.677Z,3.42
2018-09-10T16:15:06.231Z,3.37
2018-09-10T16:17:34.730Z,3.33
2018-09-10T16:20:03.238Z,3.22
2018-09-10T16:22:31.757Z,3.58
2018-09-10T16:25:00.444Z,3.27
2018-09-10T16:27:29.049Z,3.37
2018-09-10T16:29:57.490Z,4.00
2018-09-10T16:32:25.962Z,3.60
2018-09-10T16:34:54.548Z,3.30
2018-09-10T16:37:23.009Z,3.43
2018-09-10T16:39:51.652Z,3.20
2018-09-10T16:42:20.113Z,3.00
2018-09-10T16:44:48.631Z,8.03
2018-09-10T16:47:17.085Z,3.93
2018-09-10T16:49:45.623Z,3.10
2018-09-10T16:52:14.113Z,3.30
2018-09-10T16:54:42.700Z,3.00
2018-09-10T16:57:11.117Z,3.43
2018-09-10T16:59:39.618Z,3.20
2018-09-10T17:02:08.245Z,3.50
2018-09-10T17:04:36.733Z,3.40
2018-09-10T17:07:05.215Z,4.13
2018-09-10T17:09:33.721Z,4.67
2018-09-10T17:12:02.261Z,4.67
2018-09-10T17:14:30.812Z,3.70
2018-09-10T17:16:59.305Z,4.40
2018-09-10T17:19:28.096Z,4.20
2018-09-10T17:21:56.585Z,3.97
2018-09-10T17:24:25.109Z,3.63
2018-09-10T17:26:53.586Z,3.83
2018-09-10T17:29:22.082Z,3.60
2018-09-10T17:31:50.608Z,4.07
2018-09-10T17:34:19.132Z,3.50
2018-09-10T17:36:48.106Z,4.20
2018-09-10T17:39:17.221Z,4.00
2018-09-10T17:41:45.697Z,3.80
2018-09-10T17:44:14.224Z,5.83
2018-09-10T17:46:42.747Z,4.50
2018-09-10T17:49:11.247Z,7.47
2018-09-10T17:51:39.796Z,4.43
2018-09-10T17:54:08.276Z,4.70
2018-09-10T17:56:36.780Z,7.40
2018-09-10T18:00:34.471Z,4.73
2018-09-10T18:03:02.959Z,3.97
2018-09-10T18:05:31.464Z,4.37
2018-09-10T18:07:59.915Z,4.33
2018-09-10T18:10:28.460Z,6.37
2018-09-10T18:12:56.937Z,4.13
2018-09-10T18:15:25.429Z,5.57
2018-09-10T18:17:53.861Z,4.03
2018-09-10T18:20:22.432Z,5.33
2018-09-10T18:22:50.865Z,4.10
2018-09-10T18:25:19.357Z,4.40
2018-09-10T18:27:47.831Z,4.60
2018-09-10T18:30:16.329Z,4.40
2018-09-10T18:32:44.821Z,4.97
2018-09-10T18:35:13.379Z,6.30
2018-09-10T18:37:41.861Z,5.10
2018-09-10T18:40:10.404Z,4.93
2018-09-10T18:42:38.905Z,5.07
2018-09-10T18:45:07.586Z,5.10
2018-09-10T18:47:36.131Z,5.70
2018-09-10T18:50:04.729Z,5.90
2018-09-10T18:52:33.236Z,4.83
2018-09-10T18:55:01.752Z,5.30
2018-09-10T18:57:30.250Z,5.33
2018-09-10T18:59:58.749Z,5.80
2018-09-10T19:02:27.241Z,5.60
2018-09-10T19:04:55.738Z,5.57
2018-09-10T19:07:24.287Z,6.60
2018-09-10T19:09:53.657Z,5.70
2018-09-10T19:12:22.189Z,5.43
2018-09-10T19:14:50.707Z,5.87
2018-09-10T19:17:20.645Z,5.13
2018-09-10T19:19:49.125Z,6.37
2018-09-10T19:22:17.723Z,6.73
2018-09-10T19:24:52.423Z,8.77
2018-09-10T19:27:20.957Z,6.77
2018-09-10T19:29:49.461Z,5.90
2018-09-10T19:32:17.955Z,5.40
2018-09-10T19:34:46.519Z,6.90
2018-09-10T19:37:15.018Z,5.50
2018-09-10T19:39:43.541Z,6.00
2018-09-10T19:42:12.043Z,5.43
2018-09-10T19:44:40.602Z,5.17
2018-09-10T19:47:09.126Z,4.57
2018-09-10T19:49:37.635Z,6.00
2018-09-10T19:52:06.298Z,8.10
2018-09-10T19:54:34.770Z,7.37
2018-09-10T19:57:03.286Z,5.80
2018-09-10T19:59:31.860Z,7.27
2018-09-10T20:02:00.369Z,6.73
2018-09-10T20:04:28.868Z,6.63
2018-09-10T20:06:57.349Z,6.80
2018-09-10T20:09:25.900Z,6.53
2018-09-10T20:11:54.401Z,6.13
2018-09-10T20:14:22.948Z,7.17
2018-09-10T20:16:51.567Z,6.07
2018-09-10T20:19:20.051Z,5.73
2018-09-10T20:21:48.619Z,7.73
2018-09-10T20:24:17.174Z,5.90
2018-09-10T20:26:45.697Z,5.70
2018-09-10T20:29:14.206Z,6.10
2018-09-10T20:31:42.722Z,6.53
2018-09-10T20:34:11.187Z,6.43
2018-09-10T20:36:40.078Z,7.37
2018-09-10T20:39:10.695Z,8.10
2018-09-10T20:41:39.479Z,6.13
2018-09-10T20:44:12.058Z,6.23
2018-09-10T20:46:40.757Z,6.00
2018-09-10T20:49:09.233Z,6.30
2018-09-10T20:51:37.900Z,6.73
2018-09-10T20:54:06.378Z,6.67
2018-09-10T20:56:34.889Z,6.20
2018-09-10T20:59:03.354Z,6.20
2018-09-10T21:01:45.581Z,6.77
2018-09-10T21:04:14.140Z,5.90
2018-09-10T21:06:44.710Z,6.27
2018-09-10T21:09:13.174Z,8.83
2018-09-10T21:11:42.407Z,6.10
2018-09-10T21:14:10.889Z,6.60
2018-09-10T21:16:40.138Z,6.93
2018-09-10T21:19:08.602Z,6.23
2018-09-10T21:21:43.355Z,6.67
2018-09-10T21:24:11.863Z,5.87
2018-09-10T21:26:44.355Z,5.90
2018-09-10T21:29:12.997Z,5.93
2018-09-10T21:31:41.516Z,6.47
2018-09-10T21:34:10.265Z,6.30
2018-09-10T21:36:38.778Z,6.13
2018-09-10T21:39:09.159Z,9.13
2018-09-10T21:41:37.694Z,5.73
2018-09-10T21:44:06.444Z,6.63
2018-09-10T21:46:34.926Z,6.43
2018-09-10T21:49:03.686Z,6.40
2018-09-10T21:51:32.260Z,6.10
2018-09-10T21:54:01.030Z,6.50
2018-09-10T21:56:29.499Z,6.53
2018-09-10T21:58:58.048Z,7.13
2018-09-10T22:01:26.552Z,6.07
2018-09-10T22:03:55.072Z,6.43
2018-09-10T22:06:23.593Z,6.27
2018-09-10T22:08:52.141Z,6.23
2018-09-10T22:11:20.603Z,6.10
2018-09-10T22:13:49.456Z,6.20
2018-09-10T22:16:18.460Z,6.40
2018-09-10T22:18:46.956Z,6.70
2018-09-10T22:21:15.463Z,6.37
2018-09-10T22:23:44.003Z,7.07
2018-09-10T22:33:13.947Z,6.97
2018-09-10T22:35:42.399Z,7.10
2018-09-10T22:38:10.940Z,8.30
2018-09-10T22:40:39.393Z,7.10
2018-09-10T22:43:07.932Z,6.93
2018-09-10T22:45:36.456Z,6.80
2018-09-10T22:48:05.238Z,6.73
2018-09-10T22:50:33.761Z,6.73
2018-09-10T22:53:02.311Z,6.97
2018-09-10T22:55:30.805Z,6.83
2018-09-10T22:57:59.290Z,6.80
2018-09-10T23:00:27.772Z,6.90
2018-09-10T23:02:56.305Z,6.70
2018-09-10T23:05:24.752Z,7.07
2018-09-10T23:07:53.233Z,6.73
2018-09-10T23:10:21.682Z,6.80
2018-09-10T23:12:50.179Z,6.77
2018-09-10T23:15:18.664Z,7.13
2018-09-10T23:17:47.231Z,6.97
2018-09-10T23:20:15.740Z,6.97
2018-09-10T23:22:44.294Z,6.27
2018-09-10T23:25:12.839Z,6.87
2018-09-10T23:27:41.322Z,6.83
2018-09-10T23:30:09.805Z,7.40
2018-09-10T23:32:38.374Z,7.20
2018-09-10T23:35:06.884Z,7.37
2018-09-10T23:37:35.321Z,6.83
2018-09-10T23:40:03.871Z,7.57
2018-09-10T23:42:32.330Z,7.57
2018-09-10T23:45:00.859Z,7.00
2018-09-10T23:47:29.293Z,7.83
2018-09-10T23:49:57.794Z,6.73
2018-09-10T23:52:26.316Z,7.93
2018-09-10T23:54:54.841Z,7.50
2018-09-10T23:57:23.372Z,8.50
2018-09-10T23:59:51.898Z,7.90
